Time;durP1;ratioP1;P1;durP2;ratioP2;P2;SDS_P1;SDS_P2;PMS_P1;PMS_P2;Temp;Humidity;BMP_temperature;BMP_pressure;BME280_temperature;BME280_humidity;BME280_pressure;Samples;Min_cycle;Max_cycle;Signal;HPM_P1;HPM_P2
2022/05/19 00:00:01;;;;;;;5.13;2.77;;;;;;;23.35;58.40;100524.00;5114166;28;20193;-62
2022/05/19 00:02:26;;;;;;;4.33;2.90;;;;;;;23.35;58.39;100528.94;5115067;28;20472;-62
2022/05/19 00:04:52;;;;;;;7.17;3.23;;;;;;;23.36;58.33;100539.22;5115032;28;20150;-62
2022/05/19 00:07:17;;;;;;;7.20;3.00;;;;;;;23.34;58.57;100530.97;5113253;28;20223;-61
2022/05/19 00:09:42;;;;;;;6.30;3.30;;;;;;;23.35;58.13;100535.53;5113706;28;20228;-61
2022/05/19 00:12:19;;;;;;;4.87;2.70;;;;;;;23.35;58.30;100532.66;5112769;28;20173;-61
2022/05/19 00:14:44;;;;;;;6.20;2.80;;;;;;;23.34;57.47;100530.97;5096823;28;20170;-62
2022/05/19 00:17:10;;;;;;;4.23;2.87;;;;;;;23.35;58.07;100534.69;5115417;27;20454;-62
2022/05/19 00:19:35;;;;;;;4.77;3.30;;;;;;;23.35;58.32;100540.44;5134022;27;20654;-62
2022/05/19 00:22:01;;;;;;;7.20;3.10;;;;;;;23.35;58.37;100537.56;5135237;27;20173;-62
2022/05/19 00:24:26;;;;;;;4.33;2.97;;;;;;;23.35;58.50;100531.81;5135368;27;20180;-62
2022/05/19 00:26:52;;;;;;;5.10;3.20;;;;;;;23.34;58.30;100530.16;5117394;27;20176;-62
2022/05/19 00:29:17;;;;;;;4.43;2.70;;;;;;;23.35;58.76;100535.53;5114559;28;20173;-62
2022/05/19 00:31:43;;;;;;;5.60;3.10;;;;;;;23.35;58.75;100534.69;5114431;27;20226;-62
2022/05/19 00:34:08;;;;;;;4.70;3.17;;;;;;;23.34;58.45;100530.16;5113668;28;20216;-62
2022/05/19 00:36:33;;;;;;;4.20;3.13;;;;;;;23.33;58.47;100523.56;5114786;28;20418;-62
2022/05/19 00:38:59;;;;;;;5.43;3.47;;;;;;;23.34;58.65;100533.84;5115065;27;20178;-62
2022/05/19 00:41:25;;;;;;;4.50;2.67;;;;;;;23.34;58.02;100530.97;5114250;28;20166;-62
2022/05/19 00:44:02;;;;;;;4.50;3.40;;;;;;;23.34;58.29;100533.84;5114336;28;20260;-62
2022/05/19 00:46:45;;;;;;;5.63;3.07;;;;;;;23.34;58.38;100530.97;5103933;28;20221;-62
2022/05/19 00:49:25;;;;;;;5.87;3.37;;;;;;;23.33;58.01;100523.56;5093511;28;20412;-62
2022/05/19 00:52:00;;;;;;;4.70;3.40;;;;;;;23.32;58.44;100521.91;5092168;28;20550;-62
2022/05/19 00:54:29;;;;;;;3.60;2.60;;;;;;;23.32;58.23;100527.69;5093645;28;20408;-62
2022/05/19 00:57:17;;;;;;;3.43;3.10;;;;;;;23.32;58.59;100527.69;5092679;28;20456;-62
2022/05/19 01:00:12;;;;;;;5.13;3.13;;;;;;;23.33;58.40;100522.75;5076119;28;20958;-62
2022/05/19 01:02:41;;;;;;;5.07;2.83;;;;;;;23.33;58.52;100525.63;5103364;27;20843;-62
2022/05/19 01:05:28;;;;;;;3.37;2.80;;;;;;;23.33;58.51;100531.41;5112967;28;20419;-62
2022/05/19 01:08:09;;;;;;;4.50;3.03;;;;;;;23.33;58.52;100528.53;5112609;28;20435;-62
2022/05/19 01:10:36;;;;;;;4.67;3.27;;;;;;;23.31;58.62;100531.81;5113656;28;20493;-62
2022/05/19 01:13:01;;;;;;;4.33;2.73;;;;;;;23.31;58.11;100531.81;5113969;28;20415;-62
2022/05/19 01:15:26;;;;;;;4.83;3.10;;;;;;;23.31;58.16;100528.91;5111456;28;20416;-62
2022/05/19 01:17:52;;;;;;;7.33;2.60;;;;;;;23.31;58.55;100530.97;5103817;27;20200;-62
2022/05/19 01:20:22;;;;;;;3.87;2.80;;;;;;;23.31;58.20;100526.03;5126885;27;20530;-62
2022/05/19 01:23:06;;;;;;;5.40;3.30;;;;;;;23.31;58.55;100526.03;5113218;27;20510;-62
2022/05/19 01:25:47;;;;;;;3.60;2.60;;;;;;;23.31;58.74;100533.84;5113383;28;20444;-62
2022/05/19 01:28:12;;;;;;;5.10;2.90;;;;;;;23.30;58.61;100530.16;5112171;28;20898;-62
2022/05/19 01:30:38;;;;;;;4.17;3.00;;;;;;;23.30;58.29;100535.94;5109856;28;20837;-62
2022/05/19 01:33:03;;;;;;;8.07;2.70;;;;;;;23.29;58.25;100534.25;5093287;28;20279;-62
2022/05/19 01:35:33;;;;;;;4.93;2.90;;;;;;;23.30;58.28;100529.31;5093291;28;20166;-62
2022/05/19 01:38:02;;;;;;;4.80;2.97;;;;;;;23.30;58.31;100530.16;5091488;28;20199;-62
2022/05/19 01:40:51;;;;;;;4.87;3.17;;;;;;;23.30;58.57;100520.69;5090185;28;20524;-62
2022/05/19 01:43:25;;;;;;;5.83;3.10;;;;;;;23.29;58.44;100516.97;5091008;28;20435;-62
2022/05/19 01:46:27;;;;;;;3.77;2.97;;;;;;;23.28;58.58;100526.84;5090761;28;20543;-62
2022/05/19 01:49:01;;;;;;;3.40;2.60;;;;;;;23.27;58.50;100512.84;5100114;28;20792;-62
2022/05/19 01:51:45;;;;;;;5.30;3.30;;;;;;;23.29;57.90;100513.28;5110153;28;20412;-62
2022/05/19 01:54:20;;;;;;;3.90;2.70;;;;;;;23.28;57.99;100509.56;5112245;28;20439;-63
2022/05/19 01:57:13;;;;;;;3.13;2.63;;;;;;;23.27;58.30;100507.91;5112814;28;20480;-62
2022/05/19 02:00:03;;;;;;;3.93;3.17;;;;;;;23.26;58.57;100514.91;5107886;28;20543;-62
2022/05/19 02:02:35;;;;;;;4.70;2.87;;;;;;;23.27;58.46;100512.84;5113080;28;21153;-62
2022/05/19 02:05:05;;;;;;;5.67;3.47;;;;;;;23.26;58.39;100514.91;5112357;28;20460;-62
2022/05/19 02:07:31;;;;;;;6.20;3.57;;;;;;;23.27;58.41;100513.69;5112420;28;20896;-62
2022/05/19 02:10:00;;;;;;;5.27;2.90;;;;;;;23.26;58.12;100512.03;5111183;28;20540;-62
2022/05/19 02:12:27;;;;;;;4.17;3.17;;;;;;;23.27;58.16;100524.38;5113206;28;20544;-62
2022/05/19 02:14:55;;;;;;;3.60;2.63;;;;;;;23.25;58.22;100521.91;5095493;28;20507;-62
2022/05/19 02:17:21;;;;;;;4.43;3.03;;;;;;;23.25;58.54;100521.09;5093769;27;20454;-62
2022/05/19 02:19:49;;;;;;;4.80;3.13;;;;;;;23.26;58.30;100529.31;5128205;27;20495;-62
2022/05/19 02:22:17;;;;;;;3.10;2.33;;;;;;;23.25;58.50;100530.56;5111464;28;20443;-62
2022/05/19 02:24:46;;;;;;;5.93;2.77;;;;;;;23.25;58.48;100532.59;5111550;28;20922;-62
2022/05/19 02:27:44;;;;;;;4.50;3.03;;;;;;;23.25;58.31;100536.31;5094486;28;20421;-62
2022/05/19 02:30:12;;;;;;;8.20;2.80;;;;;;;23.24;58.13;100537.53;5111484;28;20400;-62
2022/05/19 02:32:38;;;;;;;7.67;3.50;;;;;;;23.24;58.35;100543.28;5112711;28;20416;-62
2022/05/19 02:35:04;;;;;;;4.03;3.00;;;;;;;23.24;58.28;100536.72;5111948;28;20415;-62
2022/05/19 02:37:30;;;;;;;6.53;3.00;;;;;;;23.23;58.33;100535.88;5111803;28;20571;-62
2022/05/19 02:39:56;;;;;;;4.73;2.70;;;;;;;23.22;58.01;100534.25;5111654;28;20941;-62
2022/05/19 02:42:22;;;;;;;3.70;3.10;;;;;;;23.22;57.74;100545.75;5112305;28;20416;-61
2022/05/19 02:44:47;;;;;;;4.70;3.13;;;;;;;23.23;58.06;100547.41;5111855;28;20204;-62
2022/05/19 02:47:13;;;;;;;4.73;3.10;;;;;;;23.22;58.30;100548.66;5094063;28;20634;-62
2022/05/19 02:49:38;;;;;;;5.03;3.40;;;;;;;23.23;57.89;100555.25;5089721;28;20170;-61
2022/05/19 02:52:04;;;;;;;6.00;3.27;;;;;;;23.23;58.44;100547.41;5089691;28;20170;-61
2022/05/19 02:54:29;;;;;;;5.40;3.13;;;;;;;23.23;58.10;100549.47;5087957;28;20185;-61
2022/05/19 02:56:55;;;;;;;5.60;3.27;;;;;;;23.22;58.06;100548.66;5096013;28;20197;-61
2022/05/19 02:59:20;;;;;;;5.23;2.90;;;;;;;23.21;58.23;100544.13;5109454;28;20188;-61
2022/05/19 03:01:46;;;;;;;4.30;3.30;;;;;;;23.23;58.31;100546.59;5111502;28;20162;-61
2022/05/19 03:04:11;;;;;;;4.27;3.40;;;;;;;23.21;58.06;100541.25;5111717;28;20337;-61
2022/05/19 03:06:37;;;;;;;4.43;3.37;;;;;;;23.21;58.27;100538.34;5112038;28;20530;-61
2022/05/19 03:09:04;;;;;;;4.20;3.10;;;;;;;23.21;57.92;100549.03;5111848;28;20640;-61
2022/05/19 03:11:30;;;;;;;4.40;3.00;;;;;;;23.20;57.87;100547.41;5110923;28;20238;-61
2022/05/19 03:13:55;;;;;;;3.77;2.90;;;;;;;23.20;57.92;100547.41;5111441;28;20923;-61
2022/05/19 03:16:20;;;;;;;4.83;3.00;;;;;;;23.20;57.80;100551.13;5106129;28;20198;-61
2022/05/19 03:18:46;;;;;;;4.13;3.17;;;;;;;23.20;58.17;100547.41;5138804;27;20165;-61
2022/05/19 03:21:11;;;;;;;4.23;2.87;;;;;;;23.19;58.25;100542.88;5138772;27;20172;-61
2022/05/19 03:23:37;;;;;;;4.27;3.20;;;;;;;23.20;57.84;100550.28;5134034;27;20161;-61
2022/05/19 03:26:02;;;;;;;6.70;3.37;;;;;;;23.19;58.00;100545.75;5099214;27;20185;-61
2022/05/19 03:28:28;;;;;;;5.90;3.10;;;;;;;23.19;57.99;100546.56;5098263;28;20174;-61
2022/05/19 03:30:54;;;;;;;6.97;3.67;;;;;;;23.18;58.13;100550.69;5097105;28;20178;-61
2022/05/19 03:33:19;;;;;;;4.63;2.87;;;;;;;23.18;58.28;100539.16;5097911;28;20485;-61
2022/05/19 03:35:45;;;;;;;4.03;3.03;;;;;;;23.18;58.28;100539.16;5098000;28;20243;-61
2022/05/19 03:38:10;;;;;;;3.70;2.77;;;;;;;23.17;58.01;100537.50;5098330;28;20194;-61
2022/05/19 03:40:36;;;;;;;12.33;3.50;;;;;;;23.18;57.95;100536.28;5099760;28;20607;-61
2022/05/19 03:43:02;;;;;;;3.63;2.90;;;;;;;23.18;57.94;100538.34;5098212;28;20181;-61
2022/05/19 03:45:27;;;;;;;4.00;3.03;;;;;;;23.16;57.80;100541.59;5098786;28;20276;-61
2022/05/19 03:47:52;;;;;;;4.10;3.03;;;;;;;23.16;57.88;100549.41;5118055;28;20169;-61
2022/05/19 03:50:18;;;;;;;4.40;2.60;;;;;;;23.15;57.57;100545.72;5117356;27;20192;-61
2022/05/19 03:52:43;;;;;;;5.63;3.10;;;;;;;23.16;57.56;100552.28;5118571;27;20178;-61
2022/05/19 03:55:11;;;;;;;4.80;3.37;;;;;;;23.16;57.47;100555.16;5118184;27;20256;-61
2022/05/19 03:57:37;;;;;;;5.07;3.47;;;;;;;23.15;57.62;100554.38;5118328;27;20268;-61
2022/05/19 04:00:04;;;;;;;3.70;2.83;;;;;;;23.15;57.70;100550.66;5118203;27;21009;-61
2022/05/19 04:02:29;;;;;;;4.83;2.83;;;;;;;23.15;58.04;100548.59;5118187;27;20189;-61
2022/05/19 04:04:54;;;;;;;5.93;3.20;;;;;;;23.15;57.62;100548.59;5118209;27;20438;-61
2022/05/19 04:07:20;;;;;;;3.73;2.83;;;;;;;23.15;57.89;100551.50;5117392;27;20173;-61
2022/05/19 04:09:45;;;;;;;4.00;2.70;;;;;;;23.14;57.87;100554.75;5117662;27;20221;-61
2022/05/19 04:12:11;;;;;;;5.30;3.17;;;;;;;23.14;57.23;100566.28;5118427;27;20620;-61
2022/05/19 04:14:36;;;;;;;4.07;3.30;;;;;;;23.13;57.65;100562.56;5117861;27;20180;-61
2022/05/19 04:17:02;;;;;;;6.27;3.23;;;;;;;23.14;57.97;100572.03;5123156;27;20589;-61
2022/05/19 04:19:28;;;;;;;5.30;3.40;;;;;;;23.14;57.53;100569.16;5137340;27;20245;-61
2022/05/19 04:21:54;;;;;;;4.20;3.00;;;;;;;23.13;57.66;100567.53;5098941;27;20416;-61
2022/05/19 04:24:19;;;;;;;4.37;3.07;;;;;;;23.12;57.47;100563.81;5095980;28;20178;-61
2022/05/19 04:26:45;;;;;;;4.00;3.00;;;;;;;23.13;57.81;100568.34;5095810;28;20174;-61
2022/05/19 04:29:10;;;;;;;6.10;2.50;;;;;;;23.13;57.82;100571.22;5093603;28;20186;-61
2022/05/19 04:31:36;;;;;;;3.93;3.00;;;;;;;23.13;57.79;100574.09;5110370;28;20177;-61
2022/05/19 04:34:01;;;;;;;3.97;3.10;;;;;;;23.13;57.68;100571.22;5113360;28;20604;-61
2022/05/19 04:36:26;;;;;;;4.97;3.13;;;;;;;23.12;57.70;100575.31;5113440;28;20570;-61
2022/05/19 04:38:52;;;;;;;3.53;2.70;;;;;;;23.13;57.87;100573.28;5114753;28;20170;-61
2022/05/19 04:41:17;;;;;;;5.20;2.80;;;;;;;23.13;57.56;100573.28;5114613;28;20220;-61
2022/05/19 04:43:43;;;;;;;4.13;3.10;;;;;;;23.14;57.86;100575.72;5112834;28;20173;-61
2022/05/19 04:46:09;;;;;;;4.73;3.00;;;;;;;23.15;57.67;100573.69;5104964;28;20696;-61
2022/05/19 04:48:35;;;;;;;3.60;2.73;;;;;;;23.15;57.71;100573.69;5110133;28;20192;-62
2022/05/19 04:51:00;;;;;;;4.20;3.07;;;;;;;23.17;57.39;100574.09;5112870;28;20189;-61
2022/05/19 04:53:26;;;;;;;5.83;3.60;;;;;;;23.17;57.62;100574.94;5112908;28;20420;-61
2022/05/19 04:55:52;;;;;;;3.40;2.80;;;;;;;23.18;57.67;100585.25;5112649;28;20170;-61
2022/05/19 04:58:17;;;;;;;5.40;3.30;;;;;;;23.18;57.58;100585.25;5113764;28;20275;-61
2022/05/19 05:00:43;;;;;;;4.40;2.97;;;;;;;23.18;57.60;100582.38;5112756;27;20415;-61
2022/05/19 05:03:08;;;;;;;4.97;3.07;;;;;;;23.18;57.71;100585.25;5113043;28;20230;-61
2022/05/19 05:05:34;;;;;;;5.70;3.27;;;;;;;23.20;57.58;100591.47;5112795;28;20181;-61
2022/05/19 05:08:00;;;;;;;4.53;3.30;;;;;;;23.20;57.76;100590.63;5113484;27;20181;-61
2022/05/19 05:10:25;;;;;;;5.17;3.27;;;;;;;23.19;57.42;100598.41;5113292;28;20822;-61
2022/05/19 05:12:51;;;;;;;5.43;3.70;;;;;;;23.19;57.60;100615.69;5111469;28;20181;-61
2022/05/19 05:15:16;;;;;;;3.90;3.03;;;;;;;23.19;57.56;100609.13;5110921;28;20185;-61
2022/05/19 05:17:42;;;;;;;3.97;3.27;;;;;;;23.17;57.67;100623.06;5116950;27;20208;-61
2022/05/19 05:20:08;;;;;;;5.87;3.17;;;;;;;23.16;57.72;100628.03;5131585;27;20165;-61
2022/05/19 05:22:35;;;;;;;6.90;3.70;;;;;;;23.16;57.84;100630.06;5131816;27;20181;-61
2022/05/19 05:25:13;;;;;;;4.40;3.50;;;;;;;23.15;57.69;100617.75;5131964;27;20414;-61
2022/05/19 05:27:39;;;;;;;5.37;3.70;;;;;;;23.15;57.53;100622.66;5133052;27;20405;-61
2022/05/19 05:30:06;;;;;;;4.17;3.43;;;;;;;23.14;57.97;100618.94;5133431;27;20788;-61
2022/05/19 05:32:32;;;;;;;6.43;3.20;;;;;;;23.15;57.86;100626.38;5109284;27;20672;-61
2022/05/19 05:34:57;;;;;;;4.03;3.10;;;;;;;23.16;57.81;100621.44;5092541;28;20404;-61
2022/05/19 05:37:23;;;;;;;3.90;2.80;;;;;;;23.16;57.84;100625.16;5092568;28;20190;-61
2022/05/19 05:39:48;;;;;;;4.13;3.50;;;;;;;23.28;58.17;100624.81;5089832;28;20185;-61
2022/05/19 05:42:14;;;;;;;6.67;5.20;;;;;;;23.60;58.70;100617.09;5099064;28;20182;-61
2022/05/19 05:44:39;;;;;;;10.40;7.33;;;;;;;23.97;60.84;100613.88;5090566;28;20299;-61
2022/05/19 05:47:05;;;;;;;12.43;7.80;;;;;;;23.81;60.51;100619.19;5098203;28;20181;-61
2022/05/19 05:49:30;;;;;;;9.80;6.37;;;;;;;23.60;59.02;100616.28;5086940;28;20712;-61
2022/05/19 05:51:56;;;;;;;12.50;6.60;;;;;;;23.56;59.68;100622.03;5110979;28;20261;-61
2022/05/19 05:54:21;;;;;;;11.70;6.00;;;;;;;23.48;58.96;100620.34;5110262;28;20322;-61
2022/05/19 05:56:47;;;;;;;7.67;5.17;;;;;;;23.46;59.22;100625.72;5112146;28;20190;-62
2022/05/19 05:59:12;;;;;;;9.40;4.97;;;;;;;23.45;59.23;100635.59;5111857;28;20189;-62
2022/05/19 06:01:38;;;;;;;8.93;4.73;;;;;;;23.37;59.03;100631.03;5105567;27;20203;-61
2022/05/19 06:04:03;;;;;;;8.93;6.10;;;;;;;23.39;59.30;100624.84;5110563;28;20169;-63
2022/05/19 06:06:28;;;;;;;7.37;4.80;;;;;;;23.39;59.00;100631.44;5091939;28;20175;-62
2022/05/19 06:08:54;;;;;;;7.90;4.80;;;;;;;23.39;58.90;100634.31;5091425;28;20535;-62
2022/05/19 06:11:19;;;;;;;8.23;5.17;;;;;;;23.39;58.73;100637.19;5091324;28;20214;-62
2022/05/19 06:13:45;;;;;;;10.73;5.90;;;;;;;23.35;58.17;100647.91;5091615;28;20189;-62
2022/05/19 06:16:11;;;;;;;10.23;5.40;;;;;;;23.38;59.56;100649.94;5092532;28;20649;-62
2022/05/19 06:18:36;;;;;;;6.77;5.50;;;;;;;23.42;59.33;100642.16;5108808;27;20192;-61
2022/05/19 06:21:03;;;;;;;9.07;5.17;;;;;;;23.40;58.99;100641.75;5110950;28;20182;-62
2022/05/19 06:23:28;;;;;;;7.57;4.60;;;;;;;23.41;58.63;100628.97;5095009;28;20186;-62
2022/05/19 06:25:54;;;;;;;7.37;5.30;;;;;;;23.41;59.05;100634.75;5105422;28;20459;-61
2022/05/19 06:28:19;;;;;;;10.13;5.70;;;;;;;23.43;59.44;100640.13;5092990;28;20189;-61
2022/05/19 06:30:45;;;;;;;9.10;5.20;;;;;;;23.42;59.63;100649.97;5092671;28;20186;-61
2022/05/19 06:33:12;;;;;;;9.97;4.97;;;;;;;23.43;59.59;100655.31;5091048;28;20541;-61
2022/05/19 06:35:38;;;;;;;7.83;5.30;;;;;;;23.42;59.07;100656.56;5095325;28;20166;-61
2022/05/19 06:38:04;;;;;;;11.13;5.80;;;;;;;23.35;58.15;100652.81;5109635;28;20475;-61
2022/05/19 06:40:30;;;;;;;7.00;4.93;;;;;;;23.27;58.00;100651.97;5104656;28;20801;-62
2022/05/19 06:42:56;;;;;;;6.73;5.23;;;;;;;23.29;59.11;100643.72;5090285;28;20185;-62
2022/05/19 06:45:23;;;;;;;7.23;5.47;;;;;;;23.37;59.29;100653.22;5091132;28;20202;-62
2022/05/19 06:47:51;;;;;;;7.33;5.17;;;;;;;23.41;58.88;100666.44;5090924;28;20496;-62
2022/05/19 06:50:17;;;;;;;7.00;5.53;;;;;;;23.41;59.01;100663.56;5092009;28;20489;-62
2022/05/19 06:52:47;;;;;;;8.53;4.80;;;;;;;23.40;58.50;100664.81;5090307;28;20924;-61
2022/05/19 06:55:13;;;;;;;6.73;4.30;;;;;;;23.42;58.90;100665.22;5100483;28;20177;-61
2022/05/19 06:57:38;;;;;;;7.73;5.07;;;;;;;23.42;58.81;100661.50;5110577;28;20463;-61
2022/05/19 07:00:05;;;;;;;8.30;5.13;;;;;;;23.42;58.61;100659.44;5111546;28;20196;-61
2022/05/19 07:02:31;;;;;;;8.77;4.67;;;;;;;23.41;57.97;100656.97;5103663;28;20225;-61
2022/05/19 07:04:56;;;;;;;7.77;4.70;;;;;;;23.34;58.22;100659.81;5090729;28;20875;-61
2022/05/19 07:07:22;;;;;;;7.30;5.60;;;;;;;23.29;58.44;100654.47;5100052;28;20169;-61
2022/05/19 07:09:47;;;;;;;14.27;4.83;;;;;;;23.31;58.37;100657.75;5099432;28;20244;-61
2022/05/19 07:12:12;;;;;;;8.67;4.87;;;;;;;23.31;58.63;100658.59;5104078;28;20644;-61
2022/05/19 07:14:38;;;;;;;11.80;5.10;;;;;;;23.32;58.51;100660.22;5110006;28;20185;-61
2022/05/19 07:17:04;;;;;;;6.20;4.20;;;;;;;23.32;58.56;100665.16;5111605;28;20196;-61
2022/05/19 07:22:22;;;;;;;5.07;3.87;;;;;;;23.35;58.56;100655.72;5123835;28;20201;-61
2022/05/19 07:24:48;;;;;;;9.83;4.43;;;;;;;23.39;59.27;100654.47;5100162;28;20473;-61
2022/05/19 07:27:14;;;;;;;17.30;5.10;;;;;;;23.40;59.27;100661.09;5091749;28;20747;-61
2022/05/19 07:29:39;;;;;;;11.00;5.27;;;;;;;23.42;59.17;100659.44;5091987;28;20432;-61
2022/05/19 07:32:05;;;;;;;7.37;5.00;;;;;;;23.41;59.34;100652.03;5087848;28;20505;-61
2022/05/19 07:34:32;;;;;;;11.03;5.30;;;;;;;23.43;59.05;100661.09;5088955;28;20208;-61
2022/05/19 07:36:57;;;;;;;9.30;4.17;;;;;;;23.46;59.26;100663.16;5088523;28;20440;-61
2022/05/19 07:39:24;;;;;;;9.23;5.07;;;;;;;23.46;59.19;100666.06;5088196;28;20428;-61
2022/05/19 07:41:51;;;;;;;11.70;4.77;;;;;;;23.47;59.58;100658.22;5088865;28;20159;-61
2022/05/19 07:44:16;;;;;;;9.43;4.90;;;;;;;23.47;59.42;100670.59;5092066;28;20759;-61
2022/05/19 07:46:42;;;;;;;9.30;4.80;;;;;;;23.48;59.29;100669.34;5090552;28;20511;-61
2022/05/19 07:49:07;;;;;;;9.80;4.90;;;;;;;23.49;58.93;100665.22;5092448;28;20182;-61
2022/05/19 07:51:39;;;;;;;12.87;4.40;;;;;;;23.50;58.56;100666.06;5109478;28;20538;-61
2022/05/19 07:54:10;;;;;;;7.47;4.50;;;;;;;23.49;58.60;100662.34;5109578;28;20184;-61
2022/05/19 07:56:36;;;;;;;15.83;4.80;;;;;;;23.52;58.34;100663.59;5109639;28;20455;-61
2022/05/19 07:59:02;;;;;;;8.80;4.10;;;;;;;23.50;58.01;100666.91;5108065;28;20933;-61
2022/05/19 08:01:27;;;;;;;10.33;3.87;;;;;;;23.52;58.06;100678.00;5110831;28;20220;-61
2022/05/19 08:03:53;;;;;;;8.30;4.17;;;;;;;23.51;57.94;100674.31;5111299;28;20541;-61
2022/05/19 08:06:18;;;;;;;10.63;4.07;;;;;;;23.53;58.42;100671.03;5114873;28;20169;-61
2022/05/19 08:08:44;;;;;;;11.10;4.50;;;;;;;23.54;58.53;100672.69;5111368;28;20184;-61
2022/05/19 08:11:09;;;;;;;6.73;3.73;;;;;;;23.54;58.38;100661.16;5114709;28;20233;-61
2022/05/19 08:16:19;;;;;;;7.63;4.23;;;;;;;23.53;58.22;100668.94;5108562;27;20189;-61
2022/05/19 08:18:44;;;;;;;6.30;4.23;;;;;;;23.53;58.58;100666.06;5134034;27;20418;-61
2022/05/19 08:21:11;;;;;;;6.53;3.80;;;;;;;23.53;58.56;100666.06;5133612;27;20176;-61
2022/05/19 08:23:38;;;;;;;7.77;3.83;;;;;;;23.53;58.49;100666.06;5132878;27;20184;-61
2022/05/19 08:26:04;;;;;;;6.37;3.90;;;;;;;23.54;58.14;100670.59;5131732;27;21016;-61
2022/05/19 08:28:30;;;;;;;7.40;3.90;;;;;;;23.53;57.77;100668.94;5122362;27;20768;-61
2022/05/19 08:31:04;;;;;;;6.93;4.00;;;;;;;23.54;58.20;100673.47;5111224;28;20166;-61
2022/05/19 08:33:30;;;;;;;6.50;4.13;;;;;;;23.55;57.90;100668.56;5111485;28;20404;-61
2022/05/19 08:35:56;;;;;;;6.47;4.07;;;;;;;23.56;57.67;100659.50;5111039;28;20469;-61
2022/05/19 08:38:21;;;;;;;6.90;4.70;;;;;;;23.54;58.09;100664.84;5112314;28;20274;-61
2022/05/19 08:41:00;;;;;;;6.50;4.50;;;;;;;23.55;58.13;100663.63;5114234;28;20252;-61
2022/05/19 08:43:31;;;;;;;6.77;3.70;;;;;;;23.54;58.11;100661.94;5114373;28;20620;-61
2022/05/19 08:46:00;;;;;;;6.83;4.10;;;;;;;23.53;58.14;100660.31;5108473;28;20896;-61
2022/05/19 08:48:26;;;;;;;6.80;4.00;;;;;;;23.54;58.14;100667.72;5092305;28;20417;-61
2022/05/19 08:51:05;;;;;;;6.83;4.10;;;;;;;23.56;58.33;100652.91;5093660;28;20424;-61
2022/05/19 08:53:35;;;;;;;7.90;3.97;;;;;;;23.55;58.25;100651.25;5092854;28;20763;-61
2022/05/19 08:56:11;;;;;;;7.60;4.27;;;;;;;23.55;58.30;100640.56;5081464;28;20919;-61
2022/05/19 08:58:39;;;;;;;6.47;4.10;;;;;;;23.58;58.11;100656.22;5111127;28;20422;-61
2022/05/19 09:01:31;;;;;;;4.73;3.37;;;;;;;23.60;58.07;100653.75;5112210;28;20443;-61
2022/05/19 09:04:05;;;;;;;10.57;4.20;;;;;;;23.57;58.28;100643.84;5105489;28;20515;-61
2022/05/19 09:07:56;;;;;;;7.93;3.80;;;;;;;23.56;58.54;100641.38;5111750;28;20518;-61
2022/05/19 09:09:41;;;;;;;5.33;3.70;;;;;;;23.54;58.35;100638.88;5111649;28;21071;-61
2022/05/19 09:12:08;;;;;;;6.10;3.97;;;;;;;23.56;58.37;100641.38;5112279;28;20404;-61
2022/05/19 09:14:34;;;;;;;7.73;3.40;;;;;;;23.56;58.66;100633.56;5110622;28;20465;-61
2022/05/19 09:17:06;;;;;;;6.23;3.40;;;;;;;23.56;58.40;100633.56;5092523;27;20556;-62
2022/05/19 09:19:38;;;;;;;6.07;3.70;;;;;;;23.56;58.40;100633.56;5131368;27;20169;-61
2022/05/19 09:22:07;;;;;;;9.00;4.17;;;;;;;23.56;58.56;100624.06;5130602;27;20414;-61
2022/05/19 09:24:33;;;;;;;12.20;4.20;;;;;;;23.56;58.45;100618.31;5132048;27;20437;-61
2022/05/19 09:27:00;;;;;;;7.43;3.10;;;;;;;23.56;58.68;100618.31;5105018;27;20866;-61
2022/05/19 09:29:51;;;;;;;8.70;4.07;;;;;;;23.56;58.40;100622.03;5091861;28;20742;-61
2022/05/19 09:32:37;;;;;;;9.50;4.10;;;;;;;23.56;58.76;100619.16;5091707;28;20493;-62
2022/05/19 09:35:10;;;;;;;7.23;3.87;;;;;;;23.60;58.72;100616.28;5089642;28;20424;-62
2022/05/19 09:37:43;;;;;;;5.13;3.43;;;;;;;23.60;58.85;100617.09;5092104;28;20476;-61
2022/05/19 09:40:12;;;;;;;13.33;4.50;;;;;;;23.59;58.87;100611.75;5092619;28;20421;-61
2022/05/19 09:43:03;;;;;;;7.20;3.73;;;;;;;23.58;58.88;100613.78;5093099;28;20440;-61
2022/05/19 09:45:29;;;;;;;7.13;3.20;;;;;;;23.58;58.87;100610.09;5090049;28;20443;-61
2022/05/19 09:48:03;;;;;;;5.23;3.47;;;;;;;23.57;59.19;100606.38;5090578;28;20478;-61
2022/05/19 09:50:31;;;;;;;5.70;3.80;;;;;;;23.58;59.29;100616.66;5073159;28;20751;-61
2022/05/19 09:53:05;;;;;;;9.93;4.47;;;;;;;23.59;59.12;100601.03;5090597;28;20508;-61
2022/05/19 09:55:30;;;;;;;5.70;3.60;;;;;;;23.60;59.18;100611.34;5091212;28;20420;-61
2022/05/19 09:57:58;;;;;;;5.23;3.30;;;;;;;23.58;59.40;100602.25;5109993;28;20520;-60
2022/05/19 10:00:37;;;;;;;9.60;3.60;;;;;;;23.57;59.33;100597.72;5112628;28;20264;-60
2022/05/19 10:03:04;;;;;;;8.03;3.57;;;;;;;23.58;59.08;100604.34;5109389;28;20415;-60
2022/05/19 10:05:37;;;;;;;8.00;3.47;;;;;;;23.57;59.48;100597.72;5111320;28;20405;-61
2022/05/19 10:08:12;;;;;;;6.50;4.37;;;;;;;23.62;59.05;100593.63;5111166;28;20416;-61
2022/05/19 10:11:21;;;;;;;6.50;3.37;;;;;;;23.61;59.23;100583.31;5111916;28;20470;-61
2022/05/19 10:14:07;;;;;;;8.33;4.40;;;;;;;23.64;58.68;100574.69;5077784;28;20436;-61
2022/05/19 10:16:48;;;;;;;6.70;3.80;;;;;;;23.67;58.43;100584.56;5106641;27;20956;-61
2022/05/19 10:19:28;;;;;;;5.80;3.90;;;;;;;23.68;58.34;100580.47;5132855;27;20551;-61
2022/05/19 10:22:14;;;;;;;7.43;3.50;;;;;;;23.66;58.29;100586.63;5132840;27;20456;-60
2022/05/19 10:24:43;;;;;;;9.40;3.90;;;;;;;23.65;58.48;100581.28;5094732;28;20430;-60
2022/05/19 10:33:34;;;;;;;6.60;3.60;;;;;;;23.69;57.76;100574.28;5076879;28;20432;-60
2022/05/19 10:36:11;;;;;;;6.23;3.60;;;;;;;23.66;58.45;100569.34;5111876;28;20427;-60
2022/05/19 10:38:56;;;;;;;4.40;3.30;;;;;;;23.63;58.56;100567.25;5111892;28;20410;-60
2022/05/19 10:41:47;;;;;;;7.50;3.90;;;;;;;23.64;58.26;100576.75;5111830;28;20537;-60
2022/05/19 10:44:50;;;;;;;6.57;3.90;;;;;;;23.68;57.78;100572.63;5110434;28;20472;-60
2022/05/19 10:47:18;;;;;;;6.00;3.70;;;;;;;23.71;57.36;100570.97;5101859;28;20412;-61
2022/05/19 10:49:46;;;;;;;9.00;4.43;;;;;;;23.73;57.22;100557.81;5111625;28;20439;-61
2022/05/19 10:52:53;;;;;;;5.10;3.70;;;;;;;23.74;57.01;100568.09;5111472;28;21026;-61
2022/05/19 10:55:54;;;;;;;6.80;3.53;;;;;;;23.75;57.33;100563.16;5091226;28;20404;-60
2022/05/19 10:58:44;;;;;;;7.00;3.73;;;;;;;23.70;57.87;100552.88;5083883;28;20926;-60
2022/05/19 11:01:16;;;;;;;6.27;3.97;;;;;;;23.70;57.85;100547.13;5091047;28;20404;-60
2022/05/19 11:03:50;;;;;;;8.43;3.73;;;;;;;23.71;57.41;100545.03;5091276;28;20408;-60
2022/05/19 11:06:34;;;;;;;8.00;3.60;;;;;;;23.74;57.36;100550.00;5091111;28;20408;-60
2022/05/19 11:09:30;;;;;;;7.77;3.70;;;;;;;23.72;57.64;100538.03;5091062;28;20426;-60
2022/05/19 11:12:13;;;;;;;8.37;3.70;;;;;;;23.72;57.19;100535.16;5090176;28;20436;-60
2022/05/19 11:15:16;;;;;;;6.63;3.30;;;;;;;23.71;57.67;100530.63;5090035;28;20785;-60
2022/05/19 11:17:56;;;;;;;7.30;3.40;;;;;;;23.68;57.89;100532.25;5115824;28;20468;-60
2022/05/19 11:20:48;;;;;;;6.70;3.83;;;;;;;23.67;57.97;100533.50;5129796;28;20834;-60
2022/05/19 11:23:37;;;;;;;7.80;3.90;;;;;;;23.68;57.55;100540.91;5106450;28;20481;-60
2022/05/19 11:26:24;;;;;;;9.17;3.87;;;;;;;23.68;57.60;100538.03;5104245;28;20416;-60
2022/05/19 11:29:05;;;;;;;6.53;3.47;;;;;;;23.68;57.82;100528.56;5095415;28;20411;-60
2022/05/19 11:31:44;;;;;;;7.00;3.60;;;;;;;23.69;58.23;100524.44;5110988;28;20406;-60
2022/05/19 11:34:20;;;;;;;7.30;3.27;;;;;;;23.69;57.88;100531.03;5094569;28;20502;-60
2022/05/19 11:36:51;;;;;;;6.13;3.70;;;;;;;23.71;58.13;100531.47;5109841;28;20878;-60
2022/05/19 11:39:33;;;;;;;9.70;4.30;;;;;;;23.74;57.80;100530.63;5114029;28;20776;-60
2022/05/19 11:42:06;;;;;;;5.67;3.60;;;;;;;23.78;57.47;100528.56;5115437;28;20410;-60
2022/05/19 11:44:34;;;;;;;7.90;4.00;;;;;;;23.80;57.68;100531.03;5097597;28;20449;-60
2022/05/19 11:47:10;;;;;;;7.13;3.33;;;;;;;23.79;57.37;100527.31;5096774;28;20442;-60
2022/05/19 11:55:27;;;;;;;7.43;3.50;;;;;;;23.74;58.20;100527.72;5110452;28;20927;-60